Impacts METAR Board
IDs:

KCVG - Cincinnati Intl, KY, US

Updated at: 1300 UTC 24 Aug 2019
Potential Impact None Slight Moderate High
Time 24/01Z 24/02Z 24/03Z 24/04Z 24/05Z 24/06Z 24/07Z 24/08Z 24/09Z 24/10Z 24/11Z 24/12Z 24/13Z
Temp68 68 68 67 65 64 63 62 62 61 60 61 64
Dewpt55 53 53 52 52 52 52 52 51 51 51 51 52
Altim30.13 30.14 30.16 30.17 30.17 30.18 30.17 30.19 30.18 30.19 30.20 30.21 30.22
VIS10 10 10 10 10 10 10 10 10 10 10 10 10
CIG250 -- -- -- -- -- -- -- -- -- -- -- --
CoverBKNFEWFEWCLRCLRCLRCLRCLRCLRCLRFEWFEWFEW
FltCatVFRVFRVFRVFRVFRVFRVFRVFRVFRVFRVFRVFRVFR
WX--------------------------
WDir80705050406070605040505050
WSpd8 8 9 10 9 9 8 7 9 10 10 9 8
WGst-- -- 19 -- -- -- -- -- -- -- -- -- --
Raw hourly METARs
KCVG 240052Z 08008KT 10SM FEW050 FEW200 BKN250 20/13 A3013 RMK AO2 SLP195 T02000128
KCVG 240152Z 07008KT 10SM FEW060 FEW250 20/12 A3014 RMK AO2 SLP200 T02000117
KCVG 240252Z 05009G19KT 10SM FEW250 20/12 A3016 RMK AO2 SLP205 T02000117 53013
KCVG 240352Z 05010KT 10SM CLR 19/11 A3017 RMK AO2 SLP210 T01940111
KCVG 240452Z 04009KT 10SM CLR 18/11 A3017 RMK AO2 SLP210 T01830111 402390183
KCVG 240552Z 06009KT 10SM CLR 18/11 A3018 RMK AO2 SLP211 T01780111 10222 20178 51006
KCVG 240652Z 07008KT 10SM CLR 17/11 A3017 RMK AO2 SLP211 T01720111
KCVG 240752Z 06007KT 10SM CLR 17/11 A3019 RMK AO2 SLP215 T01670111
KCVG 240852Z 05009KT 10SM CLR 17/11 A3018 RMK AO2 SLP214 T01670106 50003
KCVG 240952Z 04010KT 10SM CLR 16/11 A3019 RMK AO2 SLP215 T01610106
KCVG 241052Z 05010KT 10SM FEW150 16/11 A3020 RMK AO2 SLP218 T01560106
KCVG 241152Z 05009KT 10SM FEW150 16/11 A3021 RMK AO2 SLP223 T01610106 10178 20156 53008
KCVG 241252Z 05008KT 10SM FEW150 FEW250 18/11 A3022 RMK AO2 SLP226 T01780111



Page loaded:  13:53 UTC  |   06:53 AM Pacific  |   07:53 AM Mountain  |   08:53 AM Central  |   09:53 AM Eastern

 

ADVISORIES

FORECASTS

FORECASTS

OBSERVATIONS

USER TOOLS

ABOUT US